Grayling, Michigan
Current Conditions -  °F | °C
As of 11:15 PM on Wednesday 28 Jan 2015 (Local Time) from KGOV Reporting Station
Overcast Overcast  
Wind Chill: 17°   Ceiling: 10000
Heat Index: 26°   Visibility: 10mi
Dew Point: 10°   Wind: 8mph
Humidity: 51%   Direction: 140°SE
Pressure: 30"   Gusts: NA
Location:  44.66°N, 84.71°W
Report Text: KGOV 290415Z AUTO 14007KT 10SM OVC100 M03/M12 A3000 RMK AO2 T10351123
Loading
Personal Weather Stations






























Interactive Weather Map New forecast layout! Learn more

10-Day Weather Forecast

Advertisements
Track Severe Weather on mobile